Time;durP1;ratioP1;P1;durP2;ratioP2;P2;SDS_P1;SDS_P2;PMS_P1;PMS_P2;Temp;Humidity;BMP_temperature;BMP_pressure;BME280_temperature;BME280_humidity;BME280_pressure;Samples;Min_cycle;Max_cycle;Signal;HPM_P1;HPM_P2
2022/04/27 00:00:46;;;;;;;13.82;9.48;;;;;;;-139.48;100.00;61774.03;5013546;28;20100;-68
2022/04/27 00:03:30;;;;;;;13.63;10.07;;;;;;;-139.48;100.00;61774.03;5013676;28;20061;-69
2022/04/27 00:06:14;;;;;;;13.50;9.88;;;;;;;-139.48;100.00;61774.03;4998843;28;20468;-69
2022/04/27 00:08:58;;;;;;;16.50;10.73;;;;;;;-139.48;100.00;61774.03;5013932;28;20048;-69
2022/04/27 00:11:42;;;;;;;15.48;11.15;;;;;;;-139.48;100.00;61774.03;4998392;28;20418;-69
2022/04/27 00:14:30;;;;;;;16.33;11.18;;;;;;;-139.48;100.00;61774.03;5013393;28;20057;-69
2022/04/27 00:17:14;;;;;;;17.52;11.85;;;;;;;-139.48;100.00;61774.03;4998694;28;20401;-69
2022/04/27 00:19:58;;;;;;;17.85;12.43;;;;;;;-139.48;100.00;61774.03;4998744;28;20477;-69
2022/04/27 00:22:42;;;;;;;20.40;13.40;;;;;;;-139.48;100.00;61774.03;4998563;28;20161;-69
2022/04/27 00:25:26;;;;;;;19.25;10.73;;;;;;;-139.48;100.00;61774.03;4985172;28;20183;-69
2022/04/27 00:28:10;;;;;;;17.00;11.48;;;;;;;-139.48;100.00;61774.03;4998575;28;20548;-69
2022/04/27 00:30:53;;;;;;;15.85;10.95;;;;;;;-139.48;100.00;61774.03;4998867;28;20041;-68
2022/04/27 00:33:37;;;;;;;16.60;10.57;;;;;;;-139.48;100.00;61774.03;4998529;28;20161;-69
2022/04/27 00:36:21;;;;;;;16.70;10.98;;;;;;;-139.48;100.00;61774.03;5013433;28;20048;-69
2022/04/27 00:39:05;;;;;;;19.20;11.95;;;;;;;-139.48;100.00;61774.03;4998321;28;20045;-69
2022/04/27 00:42:02;;;;;;;19.77;12.77;;;;;;;-139.48;100.00;61774.03;4998224;28;20052;-69
2022/04/27 00:44:46;;;;;;;20.17;13.35;;;;;;;-139.48;100.00;61774.03;5000271;28;20104;-68
2022/04/27 00:47:30;;;;;;;19.90;12.75;;;;;;;-139.48;100.00;61774.03;5013050;28;20633;-68
2022/04/27 00:50:14;;;;;;;25.92;14.18;;;;;;;-139.48;100.00;61774.03;4998422;28;20049;-68
2022/04/27 00:52:59;;;;;;;24.40;14.80;;;;;;;-139.48;100.00;61774.03;4998228;28;20053;-68
2022/04/27 00:55:43;;;;;;;23.50;14.15;;;;;;;-139.48;100.00;61774.03;4984620;28;20099;-69
2022/04/27 00:58:28;;;;;;;23.17;14.70;;;;;;;-139.48;100.00;61774.03;4998075;28;20084;-69
2022/04/27 01:01:12;;;;;;;23.23;14.80;;;;;;;-139.48;100.00;61774.03;5013092;28;20501;-69
2022/04/27 01:03:56;;;;;;;23.85;14.57;;;;;;;-139.48;100.00;61774.03;5012864;28;20092;-69
2022/04/27 01:06:41;;;;;;;25.10;14.18;;;;;;;-139.48;100.00;61774.03;4998045;28;20052;-69
2022/04/27 01:09:25;;;;;;;21.63;13.27;;;;;;;-139.48;100.00;61774.03;4998460;28;20048;-68
2022/04/27 01:12:10;;;;;;;21.08;14.15;;;;;;;-139.48;100.00;61774.03;5001482;28;20041;-69
2022/04/27 01:14:54;;;;;;;24.35;14.52;;;;;;;-139.48;100.00;61774.03;5001530;28;20506;-69
2022/04/27 01:17:38;;;;;;;22.65;14.05;;;;;;;-139.48;100.00;61774.03;5001918;28;20096;-68
2022/04/27 01:20:22;;;;;;;22.45;13.63;;;;;;;-139.48;100.00;61774.03;5016140;28;20083;-68
2022/04/27 01:23:06;;;;;;;23.02;13.98;;;;;;;-139.48;100.00;61774.03;5016087;28;20076;-69
2022/04/27 01:25:56;;;;;;;22.15;13.80;;;;;;;-139.48;100.00;61774.03;5001310;28;20053;-68
2022/04/27 01:28:40;;;;;;;24.20;14.52;;;;;;;-139.48;100.00;61774.03;5001455;28;20053;-69
2022/04/27 01:31:23;;;;;;;24.98;14.48;;;;;;;-139.48;100.00;61774.03;5001156;28;20048;-68
2022/04/27 01:34:07;;;;;;;28.00;15.13;;;;;;;-139.48;100.00;61774.03;5001140;28;20425;-69
2022/04/27 01:36:52;;;;;;;23.20;13.70;;;;;;;-139.48;100.00;61774.03;5016179;28;20169;-68
2022/04/27 01:39:36;;;;;;;21.65;13.90;;;;;;;-139.48;100.00;61774.03;5001266;28;20049;-69
2022/04/27 01:42:20;;;;;;;20.48;13.02;;;;;;;-139.48;100.00;61774.03;5022879;22;20104;-69
2022/04/27 01:45:04;;;;;;;18.95;11.75;;;;;;;-139.48;100.00;61774.03;5001399;28;20108;-69
2022/04/27 01:47:48;;;;;;;27.23;13.73;;;;;;;-139.48;100.00;61774.03;5016356;28;20048;-69
2022/04/27 01:50:32;;;;;;;35.25;15.65;;;;;;;-139.48;100.00;61774.03;5001276;28;20048;-69
2022/04/27 01:56:19;;;;;;;26.70;14.02;;;;;;;-139.48;100.00;61774.03;5015730;28;20144;-69
2022/04/27 01:59:03;;;;;;;30.85;14.68;;;;;;;-139.48;100.00;61774.03;5000832;28;20116;-69
2022/04/27 02:01:47;;;;;;;37.47;15.98;;;;;;;-139.48;100.00;61774.03;5000709;28;20103;-68
2022/04/27 02:04:30;;;;;;;29.52;14.20;;;;;;;-139.48;100.00;61774.03;5015484;28;20429;-69
2022/04/27 02:07:14;;;;;;;33.35;15.73;;;;;;;-139.48;100.00;61774.03;5015489;28;20080;-69
2022/04/27 02:09:58;;;;;;;28.48;15.32;;;;;;;-139.48;100.00;61774.03;5015698;28;20141;-68
2022/04/27 02:12:42;;;;;;;31.13;16.02;;;;;;;-139.48;100.00;61774.03;5015320;28;20485;-69
2022/04/27 02:15:27;;;;;;;32.53;15.68;;;;;;;-139.48;100.00;61774.03;5000345;28;20056;-69
2022/04/27 02:18:11;;;;;;;29.55;16.00;;;;;;;-139.48;100.00;61774.03;4986987;28;20045;-69
2022/04/27 02:20:56;;;;;;;30.90;16.17;;;;;;;-139.48;100.00;61774.03;4999841;28;20092;-69
2022/04/27 02:23:40;;;;;;;24.95;13.77;;;;;;;-139.48;100.00;61774.03;5015140;28;20461;-69
2022/04/27 02:26:24;;;;;;;22.60;13.65;;;;;;;-139.48;100.00;61774.03;5000613;28;20057;-69
2022/04/27 02:29:08;;;;;;;23.27;13.40;;;;;;;-139.48;100.00;61774.03;5015358;28;20406;-69
2022/04/27 02:31:52;;;;;;;24.75;13.57;;;;;;;-139.48;100.00;61774.03;4986671;28;20044;-69
2022/04/27 02:34:36;;;;;;;28.25;13.88;;;;;;;-139.48;100.00;61774.03;5000354;28;20056;-69
2022/04/27 02:37:20;;;;;;;26.38;13.32;;;;;;;-139.48;100.00;61774.03;5000325;28;20063;-69
2022/04/27 02:40:05;;;;;;;24.83;14.43;;;;;;;-139.48;100.00;61774.03;5015188;28;20108;-69
2022/04/27 02:42:49;;;;;;;23.70;13.35;;;;;;;-139.48;100.00;61774.03;4999816;28;20088;-69
2022/04/27 02:45:33;;;;;;;22.88;12.88;;;;;;;-139.48;100.00;61774.03;5000215;28;20123;-69
2022/04/27 02:48:17;;;;;;;22.33;13.40;;;;;;;-139.48;100.00;61774.03;4986659;28;20564;-69
2022/04/27 02:54:04;;;;;;;25.23;12.52;;;;;;;-139.48;100.00;61774.03;5002502;28;20416;-69
2022/04/27 02:56:49;;;;;;;20.85;13.07;;;;;;;-139.48;100.00;61774.03;5014904;28;20057;-69
2022/04/27 02:59:34;;;;;;;21.30;12.75;;;;;;;-139.48;100.00;61774.03;4999745;28;20096;-69
2022/04/27 03:02:18;;;;;;;20.88;12.38;;;;;;;-139.48;100.00;61774.03;5014392;28;20044;-69
2022/04/27 03:05:02;;;;;;;20.17;12.07;;;;;;;-139.48;100.00;61774.03;4999896;28;20088;-69
2022/04/27 03:07:45;;;;;;;22.17;11.75;;;;;;;-139.48;100.00;61774.03;4986035;28;20049;-69
2022/04/27 03:10:29;;;;;;;20.15;12.57;;;;;;;-139.48;100.00;61774.03;4999536;28;20053;-69
2022/04/27 03:13:13;;;;;;;21.08;12.57;;;;;;;-139.48;100.00;61774.03;4999633;28;20061;-69
2022/04/27 03:15:57;;;;;;;19.05;12.43;;;;;;;-139.48;100.00;61774.03;5014846;28;20177;-69
2022/04/27 03:18:42;;;;;;;20.90;11.82;;;;;;;-139.48;100.00;61774.03;4999288;28;20417;-69
2022/04/27 03:21:28;;;;;;;19.70;12.38;;;;;;;-139.48;100.00;61774.03;5014355;28;20513;-69
2022/04/27 03:24:13;;;;;;;21.05;13.15;;;;;;;-139.48;100.00;61774.03;5014360;28;20081;-68
2022/04/27 03:26:57;;;;;;;22.88;13.40;;;;;;;-139.48;100.00;61774.03;4985435;28;20059;-69
2022/04/27 03:29:41;;;;;;;21.73;13.98;;;;;;;-139.48;100.00;61774.03;4999259;28;20429;-68
2022/04/27 03:32:25;;;;;;;20.48;13.20;;;;;;;-139.48;100.00;61774.03;5013822;28;20406;-69
2022/04/27 03:35:09;;;;;;;18.83;13.07;;;;;;;-139.48;100.00;61774.03;5014145;28;20040;-68
2022/04/27 03:37:52;;;;;;;23.80;11.07;;;;;;;-139.48;100.00;61774.03;4985974;28;20095;-69
2022/04/27 03:40:37;;;;;;;20.23;11.43;;;;;;;-139.48;100.00;61774.03;5013916;28;20056;-69
2022/04/27 03:43:21;;;;;;;27.55;11.88;;;;;;;-139.48;100.00;61774.03;4998991;28;20064;-69
2022/04/27 03:46:05;;;;;;;19.27;11.60;;;;;;;-139.48;100.00;61774.03;4999208;28;20096;-69
2022/04/27 03:48:48;;;;;;;16.35;11.32;;;;;;;-139.48;100.00;61774.03;4999257;28;20184;-69
2022/04/27 03:51:32;;;;;;;18.50;12.02;;;;;;;-139.48;100.00;61774.03;4985476;28;20136;-69
2022/04/27 03:54:16;;;;;;;21.67;12.63;;;;;;;-139.48;100.00;61774.03;5013625;28;20060;-68
2022/04/27 03:57:00;;;;;;;17.70;12.15;;;;;;;-139.48;100.00;61774.03;4999127;28;20125;-69
2022/04/27 03:59:44;;;;;;;21.50;13.45;;;;;;;-139.48;100.00;61774.03;4999319;28;20458;-69
2022/04/27 04:02:28;;;;;;;26.90;13.15;;;;;;;-139.48;100.00;61774.03;4998712;28;20040;-69
2022/04/27 04:05:12;;;;;;;21.17;12.05;;;;;;;-139.48;100.00;61774.03;5013782;28;20417;-69
2022/04/27 04:07:57;;;;;;;19.25;12.20;;;;;;;-139.48;100.00;61774.03;4998760;28;20048;-69
2022/04/27 04:10:41;;;;;;;20.63;12.38;;;;;;;-139.48;100.00;61774.03;4999052;28;20092;-69
2022/04/27 04:13:25;;;;;;;21.58;13.05;;;;;;;-139.48;100.00;61774.03;4999100;28;20549;-69
2022/04/27 04:16:09;;;;;;;23.55;13.20;;;;;;;-139.48;100.00;61774.03;4998686;28;20053;-69
2022/04/27 04:18:53;;;;;;;18.67;12.15;;;;;;;-139.48;100.00;61774.03;4985133;28;20048;-69
2022/04/27 04:21:38;;;;;;;19.63;12.93;;;;;;;-139.48;100.00;61774.03;5014382;28;20088;-69
2022/04/27 04:24:22;;;;;;;20.48;12.70;;;;;;;-139.48;100.00;61774.03;5013381;28;20084;-69
2022/04/27 04:30:10;;;;;;;19.95;11.88;;;;;;;-139.48;100.00;61774.03;5001198;28;20422;-68
2022/04/27 04:32:54;;;;;;;21.00;12.75;;;;;;;-139.48;100.00;61774.03;4999115;28;20053;-69
2022/04/27 04:35:38;;;;;;;17.80;11.18;;;;;;;-139.48;100.00;61774.03;4984937;28;20136;-69
2022/04/27 04:38:22;;;;;;;16.95;11.07;;;;;;;-139.48;100.00;61774.03;4998833;28;20129;-69
2022/04/27 04:41:06;;;;;;;18.88;10.85;;;;;;;-139.48;100.00;61774.03;5013223;28;20041;-69
2022/04/27 04:43:50;;;;;;;16.63;10.95;;;;;;;-139.48;100.00;61774.03;4998189;28;20120;-69
2022/04/27 04:46:34;;;;;;;16.08;10.50;;;;;;;-139.48;100.00;61774.03;5002444;28;20068;-68
2022/04/27 04:49:18;;;;;;;18.90;10.18;;;;;;;-139.48;100.00;61774.03;5002432;28;20061;-69
2022/04/27 04:52:02;;;;;;;16.45;10.85;;;;;;;-139.48;100.00;61774.03;5002608;28;20115;-69
2022/04/27 04:54:45;;;;;;;18.02;11.82;;;;;;;-139.48;100.00;61774.03;5002363;28;20099;-68
2022/04/27 04:57:30;;;;;;;16.13;10.27;;;;;;;-139.48;100.00;61774.03;5002226;28;20103;-69
2022/04/27 05:00:14;;;;;;;13.63;9.15;;;;;;;-139.48;100.00;61774.03;4988468;28;20184;-69
2022/04/27 05:02:59;;;;;;;15.20;9.57;;;;;;;-139.48;100.00;61774.03;5016659;28;20037;-69
2022/04/27 05:05:44;;;;;;;13.85;10.02;;;;;;;-139.48;100.00;61774.03;5016700;28;20052;-69
2022/04/27 05:08:28;;;;;;;13.80;10.43;;;;;;;-139.48;100.00;61774.03;5002069;28;20166;-69
2022/04/27 05:11:12;;;;;;;13.27;9.15;;;;;;;-139.48;100.00;61774.03;5016655;28;20100;-69
2022/04/27 05:13:56;;;;;;;14.68;10.13;;;;;;;-139.48;100.00;61774.03;5016804;28;20607;-69
2022/04/27 05:16:40;;;;;;;15.57;9.95;;;;;;;-139.48;100.00;61774.03;5001959;28;20053;-69
2022/04/27 05:19:24;;;;;;;;;;;;;;;-139.48;100.00;61774.03;5002195;28;20096;-69
2022/04/27 05:22:08;;;;;;;13.83;10.07;;;;;;;-139.48;100.00;61774.03;4987597;28;19920;-69
2022/04/27 05:24:52;;;;;;;14.43;10.55;;;;;;;-139.48;100.00;61774.03;5001924;28;20504;-69
2022/04/27 05:27:36;;;;;;;16.17;11.48;;;;;;;-139.48;100.00;61774.03;5001867;28;20605;-69
2022/04/27 05:33:23;;;;;;;15.05;10.38;;;;;;;-139.48;100.00;61774.03;5004127;28;20092;-69
2022/04/27 05:36:08;;;;;;;16.40;10.88;;;;;;;-139.48;100.00;61774.03;5001618;28;20609;-68
2022/04/27 05:38:52;;;;;;;19.98;11.23;;;;;;;-139.48;100.00;61774.03;5001523;28;20053;-69
2022/04/27 05:41:36;;;;;;;15.90;11.13;;;;;;;-139.48;100.00;61774.03;5001349;28;20591;-69
2022/04/27 05:44:22;;;;;;;14.27;11.07;;;;;;;-139.48;100.00;61774.03;5016225;28;20409;-69
2022/04/27 05:47:06;;;;;;;13.05;10.32;;;;;;;-139.48;100.00;61774.03;5001331;28;20104;-69
2022/04/27 05:49:50;;;;;;;15.27;9.93;;;;;;;-139.48;100.00;61774.03;5016432;28;20473;-69
2022/04/27 05:52:49;;;;;;;18.00;12.57;;;;;;;-139.48;100.00;61774.03;5015809;28;20103;-69
2022/04/27 05:55:33;;;;;;;21.13;13.40;;;;;;;-139.48;100.00;61774.03;4987024;28;20068;-69
2022/04/27 05:58:16;;;;;;;21.42;14.63;;;;;;;-139.48;100.00;61774.03;5000838;28;20176;-69
2022/04/27 06:01:00;;;;;;;23.23;14.02;;;;;;;-139.48;100.00;61774.03;5000777;28;20044;-69
2022/04/27 06:03:45;;;;;;;23.40;16.02;;;;;;;-139.48;100.00;61774.03;5000850;28;20141;-69
2022/04/27 06:06:28;;;;;;;28.65;18.05;;;;;;;-139.48;100.00;61774.03;5015865;28;20084;-69
2022/04/27 06:09:13;;;;;;;27.02;17.23;;;;;;;-139.48;100.00;61774.03;5016083;28;20458;-69
2022/04/27 06:11:57;;;;;;;25.17;17.55;;;;;;;-139.48;100.00;61774.03;5001537;28;20088;-69
2022/04/27 06:14:41;;;;;;;28.27;18.75;;;;;;;-139.48;100.00;61774.03;5016494;28;20052;-69
2022/04/27 06:17:25;;;;;;;30.30;20.13;;;;;;;-139.48;100.00;61774.03;4987175;28;20049;-69
2022/04/27 06:20:10;;;;;;;30.58;18.83;;;;;;;-139.48;100.00;61774.03;5000691;28;20056;-69
2022/04/27 06:22:56;;;;;;;28.05;19.27;;;;;;;-139.48;100.00;61774.03;5015629;28;20414;-69
2022/04/27 06:25:41;;;;;;;28.27;18.92;;;;;;;-139.48;100.00;61774.03;4986953;28;20056;-69
2022/04/27 06:28:25;;;;;;;32.38;19.85;;;;;;;-139.48;100.00;61774.03;5000392;28;20053;-69
2022/04/27 06:31:09;;;;;;;30.83;19.52;;;;;;;-139.48;100.00;61774.03;5000127;28;20103;-69
2022/04/27 06:33:52;;;;;;;31.88;21.08;;;;;;;-139.48;100.00;61774.03;4986387;28;20049;-68
2022/04/27 06:36:38;;;;;;;33.90;21.80;;;;;;;-139.48;100.00;61774.03;5000380;28;20552;-69
2022/04/27 06:39:22;;;;;;;33.10;21.52;;;;;;;-139.48;100.00;61774.03;5014921;28;20144;-69
2022/04/27 06:42:06;;;;;;;32.50;22.05;;;;;;;-139.48;100.00;61774.03;5000192;28;20053;-69
2022/04/27 06:44:50;;;;;;;33.33;22.33;;;;;;;-139.48;100.00;61774.03;5015104;28;20137;-69
2022/04/27 06:47:34;;;;;;;38.75;25.90;;;;;;;-139.48;100.00;61774.03;4999832;28;20100;-69
2022/04/27 06:50:17;;;;;;;37.25;24.55;;;;;;;-139.48;100.00;61774.03;5014601;28;20111;-68
2022/04/27 06:53:01;;;;;;;35.33;25.00;;;;;;;-139.48;100.00;61774.03;4999770;28;20245;-69
2022/04/27 06:55:47;;;;;;;35.75;23.60;;;;;;;-139.48;100.00;61774.03;4999727;28;20045;-68
2022/04/27 06:58:31;;;;;;;36.28;24.85;;;;;;;-139.48;100.00;61774.03;4986471;28;20108;-69
2022/04/27 07:01:17;;;;;;;38.58;24.08;;;;;;;-139.48;100.00;61774.03;5000062;28;20052;-69
2022/04/27 07:04:07;;;;;;;33.42;22.85;;;;;;;-139.48;100.00;61774.03;5014428;28;20061;-69
2022/04/27 07:06:51;;;;;;;38.58;25.52;;;;;;;-139.48;100.00;61774.03;5000462;28;20069;-69
2022/04/27 07:09:35;;;;;;;37.42;23.85;;;;;;;-139.48;100.00;61774.03;4999707;28;20052;-69
2022/04/27 07:12:20;;;;;;;37.88;23.13;;;;;;;-139.48;100.00;61774.03;4999621;28;20045;-69
2022/04/27 07:15:04;;;;;;;34.40;24.00;;;;;;;-139.48;100.00;61774.03;4985852;28;20049;-69
2022/04/27 07:17:48;;;;;;;37.83;24.52;;;;;;;-139.48;100.00;61774.03;4999814;28;20509;-69
2022/04/27 07:20:32;;;;;;;38.92;20.80;;;;;;;-139.48;100.00;61774.03;4999553;28;20556;-69
2022/04/27 07:23:16;;;;;;;31.15;21.42;;;;;;;-139.48;100.00;61774.03;4999140;28;20521;-69
2022/04/27 07:26:00;;;;;;;35.40;22.58;;;;;;;-139.48;100.00;61774.03;5013887;28;20049;-69
2022/04/27 07:28:44;;;;;;;30.05;20.08;;;;;;;-139.48;100.00;61774.03;5014543;28;20056;-69
2022/04/27 07:31:28;;;;;;;31.83;21.42;;;;;;;-139.48;100.00;61774.03;4999391;28;20041;-69
2022/04/27 07:34:12;;;;;;;31.38;22.23;;;;;;;-139.48;100.00;61774.03;4999135;28;20052;-69
2022/04/27 07:36:58;;;;;;;30.98;22.27;;;;;;;-139.48;100.00;61774.03;5013797;28;20164;-69
2022/04/27 07:39:41;;;;;;;30.20;21.05;;;;;;;-139.48;100.00;61774.03;4999260;28;20096;-69
2022/04/27 07:45:18;;;;;;;29.08;20.10;;;;;;;-139.48;100.00;61774.03;4973831;28;20070;-69
2022/04/27 07:48:03;;;;;;;31.52;20.90;;;;;;;-139.48;100.00;61774.03;4960238;28;20042;-69
2022/04/27 07:50:46;;;;;;;29.40;20.60;;;;;;;-139.48;100.00;61774.03;4946558;28;20050;-69
2022/04/27 07:53:30;;;;;;;27.30;20.27;;;;;;;-139.48;100.00;61774.03;4960115;28;20137;-69
2022/04/27 07:56:14;;;;;;;34.60;23.65;;;;;;;-139.48;100.00;61774.03;4946643;28;20057;-69
2022/04/27 07:58:58;;;;;;;28.40;21.10;;;;;;;-139.48;100.00;61774.03;4959827;28;20105;-69
2022/04/27 08:01:42;;;;;;;26.45;19.48;;;;;;;-139.48;100.00;61774.03;4959912;28;20415;-69
2022/04/27 08:04:26;;;;;;;27.15;19.63;;;;;;;-139.48;100.00;61774.03;4946145;28;20105;-69
2022/04/27 08:07:10;;;;;;;26.33;18.30;;;;;;;-139.48;100.00;61774.03;4974430;28;20423;-69
2022/04/27 08:09:54;;;;;;;25.63;17.80;;;;;;;-139.48;100.00;61774.03;4974366;28;20545;-69
2022/04/27 08:12:39;;;;;;;30.23;20.52;;;;;;;-139.48;100.00;61774.03;4974518;28;20043;-69
2022/04/27 08:15:24;;;;;;;24.80;18.88;;;;;;;-139.48;100.00;61774.03;4959797;28;20081;-69
2022/04/27 08:18:08;;;;;;;27.67;19.30;;;;;;;-139.48;100.00;61774.03;4959813;28;20049;-69
2022/04/27 08:23:59;;;;;;;24.20;16.67;;;;;;;-139.48;100.00;61774.03;4978309;28;20097;-69
2022/04/27 08:26:43;;;;;;;25.75;18.05;;;;;;;-139.48;100.00;61774.03;4964458;28;20054;-69
2022/04/27 08:29:27;;;;;;;22.75;17.13;;;;;;;-139.48;100.00;61774.03;4978107;28;20134;-69
2022/04/27 08:32:11;;;;;;;24.58;16.10;;;;;;;-139.48;100.00;61774.03;4963690;28;20045;-69
2022/04/27 08:34:55;;;;;;;25.70;19.73;;;;;;;-139.48;100.00;61774.03;4977942;28;20110;-69
2022/04/27 08:37:39;;;;;;;23.05;17.15;;;;;;;-139.48;100.00;61774.03;4963617;28;20048;-69
2022/04/27 08:40:24;;;;;;;;;;;;;;;-139.48;100.00;61774.03;4978565;28;20109;-69
2022/04/27 08:43:09;;;;;;;;;;;;;;;-139.48;100.00;61774.03;4963558;28;19941;-69
2022/04/27 08:45:54;;;;;;;21.80;15.13;;;;;;;-139.48;100.00;61774.03;4977826;28;19921;-69
2022/04/27 08:48:38;;;;;;;21.73;15.63;;;;;;;-139.48;100.00;61774.03;4963461;28;20069;-69
2022/04/27 08:51:22;;;;;;;20.83;14.60;;;;;;;-139.48;100.00;61774.03;4963117;28;20112;-69
2022/04/27 08:54:06;;;;;;;18.23;13.65;;;;;;;-139.48;100.00;61774.03;4962948;28;20154;-69
2022/04/27 08:56:51;;;;;;;20.50;15.30;;;;;;;-139.48;100.00;61774.03;4963268;28;20050;-69
2022/04/27 08:59:35;;;;;;;18.65;13.98;;;;;;;-139.48;100.00;61774.03;4977783;28;20054;-69
2022/04/27 09:02:24;;;;;;;19.02;14.35;;;;;;;-139.48;100.00;61774.03;4962860;28;20050;-69
2022/04/27 09:05:15;;;;;;;16.65;13.07;;;;;;;-139.48;100.00;61774.03;4962994;28;20108;-69
2022/04/27 09:07:59;;;;;;;21.88;19.13;;;;;;;-139.48;100.00;61774.03;4962873;28;20513;-70
2022/04/27 09:10:44;;;;;;;17.83;14.50;;;;;;;-139.48;100.00;61774.03;4949704;28;20069;-69
2022/04/27 09:13:34;;;;;;;16.00;12.73;;;;;;;-139.48;100.00;61774.03;4962956;28;20101;-69
2022/04/27 09:22:45;;;;;;;14.70;11.60;;;;;;;-139.48;100.00;61774.03;4977192;28;20081;-69
2022/04/27 09:25:33;;;;;;;21.98;14.65;;;;;;;-139.48;100.00;61774.03;4962424;28;20058;-70
2022/04/27 09:28:18;;;;;;;13.05;9.60;;;;;;;-139.48;100.00;61774.03;4977291;28;20410;-69
2022/04/27 09:31:03;;;;;;;16.63;13.30;;;;;;;-139.48;100.00;61774.03;4962273;28;20045;-69
2022/04/27 09:33:56;;;;;;;20.02;9.13;;;;;;;-139.48;100.00;61774.03;4976963;28;20053;-69
2022/04/27 09:36:42;;;;;;;14.47;9.70;;;;;;;-139.48;100.00;61774.03;4962284;28;20042;-69
2022/04/27 09:39:26;;;;;;;16.73;12.15;;;;;;;-139.48;100.00;61774.03;4977147;28;20526;-70
2022/04/27 09:42:11;;;;;;;8.90;7.60;;;;;;;-139.48;100.00;61774.03;4976879;28;20083;-69
2022/04/27 09:45:13;;;;;;;7.05;5.90;;;;;;;-139.48;100.00;61774.03;4976576;28;20046;-69
2022/04/27 09:48:03;;;;;;;6.97;6.20;;;;;;;-139.48;100.00;61774.03;4962288;28;20045;-69
2022/04/27 09:50:50;;;;;;;9.15;6.47;;;;;;;-139.48;100.00;61774.03;4962274;28;20101;-69
2022/04/27 09:53:36;;;;;;;7.95;6.32;;;;;;;-139.48;100.00;61774.03;4961826;28;20109;-70
2022/04/27 09:56:21;;;;;;;9.93;8.23;;;;;;;-139.48;100.00;61774.03;4948836;28;20100;-69
2022/04/27 09:59:09;;;;;;;7.15;5.60;;;;;;;-139.48;100.00;61774.03;4962093;28;20062;-70
2022/04/27 10:02:01;;;;;;;6.90;5.55;;;;;;;-139.48;100.00;61774.03;4976606;28;20098;-70
2022/04/27 10:04:45;;;;;;;7.43;5.03;;;;;;;-139.48;100.00;61774.03;4962052;28;20065;-70
2022/04/27 10:07:32;;;;;;;5.13;4.32;;;;;;;-139.48;nan;82732.59;4948135;28;20211;-70
2022/04/27 10:10:16;;;;;;;4.82;4.13;;;;;;;12.58;100.00;80535.50;4962369;28;20439;-70
2022/04/27 10:13:01;;;;;;;4.72;4.00;;;;;;;-139.48;100.00;61774.03;4976408;28;20053;-70
2022/04/27 10:15:46;;;;;;;4.00;3.67;;;;;;;-139.48;100.00;61774.03;4961747;28;20090;-71
2022/04/27 10:18:31;;;;;;;4.43;4.00;;;;;;;-139.48;100.00;61774.03;4961731;28;20045;-70
2022/04/27 10:21:39;;;;;;;6.10;4.05;;;;;;;-139.48;100.00;61774.03;4961596;28;20427;-70
2022/04/27 10:24:38;;;;;;;5.45;4.93;;;;;;;25.44;nan;101165.09;4961852;28;20054;-71
2022/04/27 10:27:24;;;;;;;7.40;6.70;;;;;;;27.04;nan;101168.50;4961331;28;20093;-70
2022/04/27 10:30:13;;;;;;;7.03;6.32;;;;;;;25.81;nan;101167.78;4976206;28;20509;-69
2022/04/27 10:32:56;;;;;;;6.55;5.13;;;;;;;26.80;nan;101166.72;4961674;28;20061;-70
2022/04/27 10:35:40;;;;;;;5.63;4.63;;;;;;;27.93;nan;101163.94;4961037;28;20510;-69
2022/04/27 10:38:24;;;;;;;5.28;4.88;;;;;;;25.52;nan;101165.66;4961360;28;20045;-70
2022/04/27 10:41:08;;;;;;;10.13;8.98;;;;;;;24.19;nan;101168.38;4961337;28;20478;-69
2022/04/27 10:43:53;;;;;;;24.80;22.60;;;;;;;24.19;nan;101168.38;4946532;28;20414;-69
2022/04/27 10:46:39;;;;;;;5.30;4.15;;;;;;;21.81;nan;101157.00;4975743;28;20085;-69
2022/04/27 10:49:24;;;;;;;7.15;6.40;;;;;;;22.49;nan;101157.97;4961613;28;20057;-69
2022/04/27 10:52:09;;;;;;;6.72;5.70;;;;;;;22.86;nan;101152.13;4975559;28;20181;-69
2022/04/27 10:54:55;;;;;;;5.15;4.15;;;;;;;23.42;nan;101159.03;4960822;28;20101;-69
2022/04/27 10:57:41;;;;;;;3.90;3.30;;;;;;;24.70;nan;101163.94;4960760;28;20056;-70
2022/04/27 11:00:25;;;;;;;5.32;4.60;;;;;;;25.75;nan;101157.72;4975608;28;20059;-70
2022/04/27 11:03:18;;;;;;;7.40;6.68;;;;;;;24.42;nan;101152.41;4960894;28;20136;-70
2022/04/27 11:06:06;;;;;;;8.10;5.25;;;;;;;22.35;nan;101158.91;4947239;28;20054;-69
2022/04/27 11:09:12;;;;;;;4.82;4.32;;;;;;;22.85;nan;101165.91;4975450;28;20050;-69
2022/04/27 11:11:57;;;;;;;7.47;6.20;;;;;;;22.81;nan;101167.38;4960525;28;20092;-69
2022/04/27 11:14:45;;;;;;;6.80;6.10;;;;;;;21.61;nan;101164.91;4975037;28;20121;-69
2022/04/27 11:17:29;;;;;;;5.10;4.60;;;;;;;21.20;nan;101168.44;4960668;28;20069;-69
2022/04/27 11:20:34;;;;;;;9.52;6.97;;;;;;;21.20;nan;101168.44;4960420;28;20093;-69
2022/04/27 11:23:21;;;;;;;5.05;3.75;;;;;;;21.40;nan;101161.38;4975081;28;20050;-69
2022/04/27 11:26:06;;;;;;;9.73;6.18;;;;;;;-139.48;100.00;61774.03;4974919;28;20054;-69
2022/04/27 11:28:52;;;;;;;13.93;9.32;;;;;;;21.88;nan;101149.78;4974893;28;20088;-69
2022/04/27 11:31:37;;;;;;;5.90;4.65;;;;;;;21.86;nan;101147.25;4960693;28;20509;-69
2022/04/27 11:34:25;;;;;;;11.80;10.57;;;;;;;23.30;nan;101155.25;4960168;28;20102;-69
2022/04/27 11:37:19;;;;;;;10.30;8.88;;;;;;;23.79;nan;101149.47;4975005;28;20069;-69
2022/04/27 11:40:20;;;;;;;4.40;3.95;;;;;;;23.34;nan;101151.06;4960340;28;20132;-69
2022/04/27 11:43:04;;;;;;;6.47;5.25;;;;;;;22.47;nan;101146.47;4960084;28;20182;-67
2022/04/27 11:45:49;;;;;;;14.35;7.75;;;;;;;21.72;nan;101155.47;4974902;28;20142;-69
2022/04/27 11:48:33;;;;;;;6.18;5.30;;;;;;;23.72;nan;101149.47;4960208;28;20129;-69
2022/04/27 11:51:17;;;;;;;;;;;;;;;24.56;nan;101149.47;4975053;28;20101;-69
2022/04/27 11:54:01;;;;;;;12.10;8.43;;;;;;;23.81;nan;101145.50;4946203;28;19921;-68
2022/04/27 11:56:45;;;;;;;8.45;5.70;;;;;;;23.35;nan;101158.19;4975002;28;20058;-69
2022/04/27 11:59:41;;;;;;;;;;;;;;;22.76;nan;101148.94;4975129;28;20195;-69
2022/04/27 12:02:26;;;;;;;9.88;6.03;;;;;;;21.98;nan;101153.81;4946189;28;20441;-69
2022/04/27 12:05:10;;;;;;;6.30;5.50;;;;;;;21.51;nan;101156.25;4974387;28;20045;-69
2022/04/27 12:07:54;;;;;;;13.45;7.80;;;;;;;21.16;nan;101148.19;4946696;28;20045;-69
2022/04/27 12:10:42;;;;;;;7.07;6.10;;;;;;;22.07;nan;101151.78;4959634;28;20066;-69
2022/04/27 12:13:26;;;;;;;10.43;6.20;;;;;;;22.75;nan;101154.56;4959789;28;20545;-69
2022/04/27 12:16:10;;;;;;;;;;;;;;;23.63;nan;101149.88;4946494;28;20057;-69
2022/04/27 12:18:54;;;;;;;5.70;5.15;;;;;;;25.14;nan;101142.13;4959911;28;20022;-68
2022/04/27 12:21:38;;;;;;;;;;;;;;;25.24;nan;101139.81;4960173;28;20050;-68
2022/04/27 12:24:22;;;;;;;4.57;3.42;;;;;;;26.07;nan;101132.09;4959569;28;20457;-69
2022/04/27 12:27:19;;;;;;;5.90;4.32;;;;;;;25.26;nan;101135.81;4974122;28;20053;-69
2022/04/27 12:30:07;;;;;;;4.53;4.13;;;;;;;26.62;nan;101130.28;4959802;28;20145;-69
2022/04/27 12:32:52;;;;;;;3.95;3.55;;;;;;;28.38;nan;101126.66;4974576;28;20101;-70
2022/04/27 12:39:20;;;;;;;3.70;3.35;;;;;;;28.02;nan;101129.63;4974408;28;20058;-70
2022/04/27 12:42:09;;;;;;;5.65;3.85;;;;;;;27.87;nan;101124.59;4974211;28;20134;-69
2022/04/27 12:44:58;;;;;;;6.55;3.75;;;;;;;25.91;nan;101135.38;4974147;28;20062;-69
2022/04/27 12:47:46;;;;;;;4.93;3.78;;;;;;;23.82;nan;101135.47;4960469;28;20100;-69
2022/04/27 12:50:34;;;;;;;5.65;3.47;;;;;;;23.03;nan;101139.84;4974315;28;20057;-69
2022/04/27 12:53:18;;;;;;;5.13;3.42;;;;;;;24.46;nan;101129.13;4946262;28;20057;-70